Time;durP1;ratioP1;P1;durP2;ratioP2;P2;SDS_P1;SDS_P2;PMS_P1;PMS_P2;Temp;Humidity;BMP_temperature;BMP_pressure;BME280_temperature;BME280_humidity;BME280_pressure;Samples;Min_cycle;Max_cycle;Signal;HPM_P1;HPM_P2
2021/08/08 00:00:12;;;;;;;16.67;3.10;;;16.70;99.90;;;;;;4151185;28;20172;-94
2021/08/08 00:02:13;;;;;;;19.80;3.72;;;16.60;99.90;;;;;;4165047;28;20276;-91
2021/08/08 00:04:14;;;;;;;19.13;3.13;;;16.50;99.90;;;;;;4149552;28;20521;-88
2021/08/08 00:06:14;;;;;;;19.58;3.33;;;16.60;99.90;;;;;;4150254;28;20196;-90
2021/08/08 00:08:17;;;;;;;21.40;3.67;;;16.50;99.90;;;;;;4148742;28;20209;-92
2021/08/08 00:10:18;;;;;;;18.27;2.78;;;16.50;99.90;;;;;;4165998;28;20203;-89
2021/08/08 00:12:19;;;;;;;17.83;3.40;;;16.50;99.90;;;;;;4149822;28;20707;-88
2021/08/08 00:14:24;;;;;;;26.30;3.40;;;16.50;99.90;;;;;;4151195;28;20645;-90
2021/08/08 00:16:27;;;;;;;15.88;2.90;;;16.60;99.90;;;;;;4149037;28;20188;-91
2021/08/08 00:18:27;;;;;;;20.95;2.95;;;16.60;99.90;;;;;;4150591;28;20277;-95
2021/08/08 00:20:29;;;;;;;21.50;3.28;;;16.70;99.90;;;;;;4150816;28;20177;-90
2021/08/08 00:22:30;;;;;;;17.13;3.20;;;16.70;99.90;;;;;;4151526;28;20169;-90
2021/08/08 00:24:33;;;;;;;20.90;3.00;;;16.50;99.90;;;;;;4167546;28;20171;-89
2021/08/08 00:26:35;;;;;;;18.58;2.78;;;16.50;99.90;;;;;;4165697;28;20249;-94
2021/08/08 00:28:36;;;;;;;19.48;3.25;;;16.40;99.90;;;;;;4166545;28;20176;-95
2021/08/08 00:30:37;;;;;;;17.77;2.65;;;16.30;99.90;;;;;;4149071;28;20689;-95
2021/08/08 00:32:39;;;;;;;23.38;2.97;;;16.30;99.90;;;;;;4150239;28;20200;-89
2021/08/08 00:34:42;;;;;;;16.42;2.78;;;16.10;99.90;;;;;;4166182;28;20652;-89
2021/08/08 00:36:43;;;;;;;21.85;3.83;;;16.10;99.90;;;;;;4150683;28;20227;-90
2021/08/08 00:38:44;;;;;;;16.40;2.67;;;16.10;99.90;;;;;;4151834;28;20259;-90
2021/08/08 00:40:46;;;;;;;18.45;2.70;;;16.20;99.90;;;;;;4150344;28;20164;-91
2021/08/08 00:42:47;;;;;;;19.20;2.90;;;16.10;99.90;;;;;;4164780;28;20172;-90
2021/08/08 00:44:50;;;;;;;14.55;2.70;;;16.00;99.90;;;;;;4148487;28;20181;-89
2021/08/08 00:46:53;;;;;;;16.63;2.85;;;15.90;99.90;;;;;;4167188;28;20168;-91
2021/08/08 00:48:56;;;;;;;25.38;3.20;;;15.80;99.90;;;;;;4165101;28;20172;-87
2021/08/08 00:50:59;;;;;;;20.70;3.08;;;15.80;99.90;;;;;;4149495;28;20760;-90
2021/08/08 00:53:18;;;;;;;21.38;3.00;;;15.90;99.90;;;;;;4155318;28;20232;-95
2021/08/08 00:55:21;;;;;;;24.85;2.95;;;15.90;99.90;;;;;;4148823;28;20283;-90
2021/08/08 00:57:22;;;;;;;25.73;3.20;;;15.80;99.90;;;;;;4150263;28;20207;-90
2021/08/08 00:59:41;;;;;;;24.65;3.65;;;15.80;99.90;;;;;;4169033;28;20211;-91
2021/08/08 01:01:46;;;;;;;19.83;3.08;;;15.80;99.90;;;;;;4133235;28;20272;-94
2021/08/08 01:03:54;;;;;;;23.05;2.97;;;15.80;99.90;;;;;;4169065;28;20229;-94
2021/08/08 01:06:21;;;;;;;17.00;3.47;;;15.80;99.90;;;;;;4150130;28;20291;-89
2021/08/08 01:08:30;;;;;;;17.67;2.72;;;15.70;99.90;;;;;;4149714;28;20172;-89
2021/08/08 01:10:34;;;;;;;13.85;2.88;;;15.70;99.90;;;;;;4170283;28;20230;-90
2021/08/08 01:12:56;;;;;;;18.35;3.35;;;15.70;99.90;;;;;;4168872;28;20657;-89
2021/08/08 01:14:59;;;;;;;18.52;2.97;;;16.00;99.90;;;;;;4169415;28;20221;-89
2021/08/08 01:17:04;;;;;;;32.25;3.42;;;16.00;99.90;;;;;;4152102;28;20171;-88
2021/08/08 01:19:10;;;;;;;18.67;3.38;;;16.00;99.90;;;;;;4156002;28;20177;-93
2021/08/08 01:21:11;;;;;;;20.50;3.17;;;15.90;99.90;;;;;;4151052;28;20181;-90
2021/08/08 01:23:20;;;;;;;16.90;2.72;;;15.90;99.90;;;;;;4153131;28;20173;-91
2021/08/08 01:25:36;;;;;;;22.67;3.38;;;16.00;99.90;;;;;;4168045;28;20192;-90
2021/08/08 01:27:39;;;;;;;20.40;3.20;;;16.10;99.90;;;;;;4170495;28;20176;-89
2021/08/08 01:29:43;;;;;;;19.83;3.28;;;16.10;99.90;;;;;;4172609;28;20188;-89
2021/08/08 01:31:53;;;;;;;19.48;3.50;;;16.10;99.90;;;;;;4151165;28;20271;-89
2021/08/08 01:34:01;;;;;;;19.98;3.63;;;16.20;99.90;;;;;;4153172;28;20195;-89
2021/08/08 01:36:03;;;;;;;26.75;3.75;;;16.20;99.90;;;;;;4171817;28;20192;-90
2021/08/08 01:38:08;;;;;;;20.25;3.58;;;16.10;99.90;;;;;;4152525;28;20196;-90
2021/08/08 01:40:19;;;;;;;34.58;3.70;;;16.20;99.90;;;;;;4154942;28;20225;-89
2021/08/08 01:42:23;;;;;;;19.58;3.10;;;16.20;99.90;;;;;;4167628;28;20171;-89
2021/08/08 01:44:42;;;;;;;20.00;3.28;;;16.20;99.90;;;;;;4151264;28;20260;-88
2021/08/08 01:46:44;;;;;;;31.50;3.17;;;16.20;99.90;;;;;;4169762;28;20221;-90
2021/08/08 01:49:11;;;;;;;25.70;3.53;;;16.10;99.90;;;;;;4169694;28;20180;-89
2021/08/08 01:51:16;;;;;;;16.40;3.28;;;16.10;99.90;;;;;;4152718;28;20240;-88
2021/08/08 01:53:24;;;;;;;25.70;4.53;;;16.20;99.90;;;;;;4171046;28;20679;-92
2021/08/08 01:55:26;;;;;;;20.92;3.58;;;16.20;99.90;;;;;;4157517;28;20742;-88
2021/08/08 01:57:35;;;;;;;22.85;3.42;;;16.20;99.90;;;;;;4167140;28;20171;-91
2021/08/08 01:59:45;;;;;;;19.70;3.40;;;16.30;99.90;;;;;;4154667;28;20604;-95
2021/08/08 02:01:50;;;;;;;25.17;3.78;;;16.00;99.90;;;;;;4157676;28;20672;-89
2021/08/08 02:03:54;;;;;;;17.85;3.10;;;15.80;99.90;;;;;;4153655;28;20176;-91
2021/08/08 02:05:54;;;;;;;27.75;3.53;;;15.80;99.90;;;;;;4150426;28;20677;-90
2021/08/08 02:07:56;;;;;;;20.20;3.72;;;15.70;99.90;;;;;;4151245;28;20185;-91
2021/08/08 02:10:00;;;;;;;27.38;3.53;;;15.70;99.90;;;;;;4168724;28;20207;-89
2021/08/08 02:12:02;;;;;;;29.48;3.25;;;15.70;99.90;;;;;;4152188;28;20181;-94
2021/08/08 02:14:06;;;;;;;28.33;3.20;;;15.80;99.90;;;;;;4167347;28;20160;-90
2021/08/08 02:16:09;;;;;;;20.05;3.03;;;15.90;99.90;;;;;;4152108;28;20557;-92
2021/08/08 02:18:12;;;;;;;20.63;2.97;;;15.90;99.90;;;;;;4167926;28;20771;-90
2021/08/08 02:20:21;;;;;;;25.45;2.97;;;15.70;99.90;;;;;;4151186;28;21044;-91
2021/08/08 02:22:29;;;;;;;19.10;2.83;;;15.70;99.90;;;;;;4168276;28;20188;-89
2021/08/08 02:24:34;;;;;;;24.10;3.90;;;15.80;99.90;;;;;;4151452;28;20188;-90
2021/08/08 02:27:13;;;;;;;15.80;2.58;;;15.80;99.90;;;;;;4166645;28;20172;-92
2021/08/08 02:29:18;;;;;;;24.63;2.78;;;15.80;99.90;;;;;;4152566;28;20192;-90
2021/08/08 02:31:19;;;;;;;21.70;3.55;;;15.80;99.90;;;;;;4154836;28;20219;-95
2021/08/08 02:33:21;;;;;;;24.98;3.38;;;15.80;99.90;;;;;;4151101;28;20188;-89
2021/08/08 02:35:30;;;;;;;26.35;3.65;;;15.80;99.90;;;;;;4170074;28;20198;-94
2021/08/08 02:37:32;;;;;;;18.75;3.75;;;15.90;99.90;;;;;;4168273;28;20180;-89
2021/08/08 02:39:32;;;;;;;17.45;3.00;;;15.80;99.90;;;;;;4166905;28;20271;-89
2021/08/08 02:41:35;;;;;;;24.77;3.22;;;15.80;99.90;;;;;;4171089;28;20637;-87
2021/08/08 02:43:37;;;;;;;21.75;2.92;;;15.90;99.90;;;;;;4166593;28;20179;-89
2021/08/08 02:45:49;;;;;;;22.50;3.30;;;15.90;99.90;;;;;;4166785;28;20195;-90
2021/08/08 02:47:50;;;;;;;32.45;3.40;;;16.00;99.90;;;;;;4155495;28;20173;-90
2021/08/08 02:49:53;;;;;;;22.08;2.70;;;16.00;99.90;;;;;;4150218;28;20212;-89
2021/08/08 02:51:56;;;;;;;23.30;3.40;;;16.00;99.90;;;;;;4152764;28;20275;-90
2021/08/08 02:53:57;;;;;;;27.00;3.08;;;15.90;99.90;;;;;;4166466;28;20238;-90
2021/08/08 02:56:01;;;;;;;20.48;2.80;;;16.00;99.90;;;;;;4170463;28;20234;-90
2021/08/08 02:58:06;;;;;;;15.65;2.90;;;16.00;99.90;;;;;;4166942;28;20180;-89
2021/08/08 03:00:11;;;;;;;14.63;2.72;;;16.00;99.90;;;;;;4150112;28;20173;-89
2021/08/08 03:02:15;;;;;;;22.70;3.00;;;16.10;99.90;;;;;;4169506;28;20579;-90
2021/08/08 03:04:16;;;;;;;26.98;3.42;;;15.90;99.90;;;;;;4151874;28;20169;-89
2021/08/08 03:06:23;;;;;;;28.90;3.20;;;15.90;99.90;;;;;;4166378;28;20184;-90
2021/08/08 03:08:25;;;;;;;17.58;2.53;;;15.90;99.90;;;;;;4138250;28;20188;-90
2021/08/08 03:10:27;;;;;;;21.20;3.25;;;16.00;99.90;;;;;;4153746;28;20263;-89
2021/08/08 03:12:29;;;;;;;21.73;3.70;;;16.00;99.90;;;;;;4151740;28;20554;-91
2021/08/08 03:14:30;;;;;;;18.08;2.90;;;16.00;99.90;;;;;;4150469;28;20243;-88
2021/08/08 03:16:34;;;;;;;28.60;4.07;;;15.90;99.90;;;;;;4151582;28;20553;-90
2021/08/08 03:18:35;;;;;;;20.98;2.90;;;15.90;99.90;;;;;;4150910;28;20181;-90
2021/08/08 03:20:36;;;;;;;20.27;3.58;;;15.90;99.90;;;;;;4166192;28;20711;-90
2021/08/08 03:22:38;;;;;;;21.60;3.85;;;16.00;99.90;;;;;;4151486;28;20223;-90
2021/08/08 03:24:45;;;;;;;28.17;3.83;;;16.10;99.90;;;;;;4151943;28;20229;-89
2021/08/08 03:26:51;;;;;;;15.65;2.60;;;16.10;99.90;;;;;;4150183;28;20692;-90
2021/08/08 03:28:52;;;;;;;17.42;3.78;;;16.00;99.90;;;;;;4149406;28;20195;-89
2021/08/08 03:30:53;;;;;;;23.70;3.35;;;16.00;99.90;;;;;;4149262;28;20209;-88
2021/08/08 03:32:56;;;;;;;21.08;3.03;;;16.00;99.90;;;;;;4149964;28;20260;-91
2021/08/08 03:34:58;;;;;;;17.08;2.95;;;16.10;99.90;;;;;;4165503;28;20179;-89
2021/08/08 03:36:58;;;;;;;22.80;3.92;;;16.00;99.90;;;;;;4151958;28;20641;-89
2021/08/08 03:39:01;;;;;;;30.85;3.13;;;16.00;99.90;;;;;;4151144;28;20240;-88
2021/08/08 03:41:05;;;;;;;29.08;3.65;;;16.00;99.90;;;;;;4149077;28;20172;-91
2021/08/08 03:43:25;;;;;;;28.23;3.58;;;15.90;99.90;;;;;;4149180;28;20169;-91
2021/08/08 03:45:26;;;;;;;16.88;3.47;;;15.90;99.90;;;;;;4149538;28;20545;-88
2021/08/08 03:47:27;;;;;;;21.85;2.88;;;15.90;99.90;;;;;;4149276;28;20268;-90
2021/08/08 03:49:29;;;;;;;21.20;3.38;;;15.80;99.90;;;;;;4168057;28;20191;-88
2021/08/08 03:51:31;;;;;;;28.50;3.33;;;15.80;99.90;;;;;;4165911;28;20207;-91
2021/08/08 03:53:33;;;;;;;17.63;3.40;;;15.90;99.90;;;;;;4152415;28;20525;-88
2021/08/08 03:55:34;;;;;;;24.25;4.25;;;16.10;99.90;;;;;;4154191;28;20212;-89
2021/08/08 03:57:36;;;;;;;19.35;3.03;;;16.10;99.90;;;;;;4167734;28;20196;-88
2021/08/08 03:59:53;;;;;;;25.10;3.67;;;16.00;99.90;;;;;;4153891;28;20280;-93
2021/08/08 04:01:58;;;;;;;31.52;3.72;;;15.90;99.90;;;;;;4166338;28;20172;-90
2021/08/08 04:04:00;;;;;;;26.90;3.92;;;15.80;99.90;;;;;;4150115;28;20185;-95
2021/08/08 04:06:04;;;;;;;23.52;3.25;;;16.00;99.90;;;;;;4150984;28;20644;-91
2021/08/08 04:08:11;;;;;;;15.73;3.15;;;16.00;99.90;;;;;;4153653;28;20200;-90
2021/08/08 04:10:12;;;;;;;21.08;3.53;;;15.90;99.90;;;;;;4152048;28;20216;-96
2021/08/08 04:12:17;;;;;;;27.02;3.30;;;15.90;99.90;;;;;;4167987;28;20734;-90
2021/08/08 04:14:18;;;;;;;29.08;3.60;;;15.80;99.90;;;;;;4153675;28;20180;-96
2021/08/08 04:16:34;;;;;;;24.65;3.25;;;15.90;99.90;;;;;;4164976;28;20560;-90
2021/08/08 04:18:39;;;;;;;26.40;4.30;;;15.90;99.90;;;;;;4148556;28;20177;-91
2021/08/08 04:20:41;;;;;;;26.25;4.00;;;15.80;99.90;;;;;;4149744;28;20173;-91
2021/08/08 04:22:41;;;;;;;20.67;3.58;;;15.90;99.90;;;;;;4151650;28;20506;-96
2021/08/08 04:24:45;;;;;;;21.88;3.28;;;15.90;99.90;;;;;;4150546;28;20184;-91
2021/08/08 04:26:46;;;;;;;31.20;3.33;;;15.80;99.90;;;;;;4153165;28;20154;-91
2021/08/08 04:28:46;;;;;;;17.98;2.92;;;15.70;99.90;;;;;;4150176;28;20171;-90
2021/08/08 04:30:49;;;;;;;23.88;3.05;;;15.70;99.90;;;;;;4166016;28;20211;-91
2021/08/08 04:32:53;;;;;;;24.48;3.60;;;15.70;99.90;;;;;;4150072;28;20196;-90
2021/08/08 04:34:54;;;;;;;22.42;3.45;;;15.60;99.90;;;;;;4166322;28;20176;-90
2021/08/08 04:36:55;;;;;;;27.70;3.90;;;15.60;99.90;;;;;;4167156;28;20240;-89
2021/08/08 04:38:59;;;;;;;23.77;4.07;;;15.60;99.90;;;;;;4164755;28;20560;-90
2021/08/08 04:41:05;;;;;;;16.92;3.45;;;15.60;99.90;;;;;;4166637;28;20200;-90
2021/08/08 04:43:06;;;;;;;20.17;3.28;;;15.50;99.90;;;;;;4167745;28;20632;-90
2021/08/08 04:45:07;;;;;;;16.00;3.05;;;15.50;99.90;;;;;;4167943;28;20180;-89
2021/08/08 04:47:08;;;;;;;25.85;3.67;;;15.40;99.90;;;;;;4149307;28;20252;-90
2021/08/08 04:49:09;;;;;;;18.42;3.53;;;15.50;99.90;;;;;;4149328;28;20172;-90
2021/08/08 04:51:12;;;;;;;26.80;3.50;;;15.40;99.90;;;;;;4149427;28;20227;-90
2021/08/08 04:53:16;;;;;;;19.15;2.90;;;15.40;99.90;;;;;;4182825;28;20159;-90
2021/08/08 04:55:18;;;;;;;28.85;3.72;;;15.40;99.90;;;;;;4151148;28;20196;-90
2021/08/08 04:57:18;;;;;;;21.55;3.50;;;15.50;99.90;;;;;;4148642;28;20215;-88
2021/08/08 04:59:19;;;;;;;16.08;3.63;;;15.60;99.90;;;;;;4149916;28;20256;-89
2021/08/08 05:01:20;;;;;;;26.48;3.83;;;15.60;99.90;;;;;;4165183;28;20251;-90
2021/08/08 05:03:41;;;;;;;23.13;3.70;;;15.60;99.90;;;;;;4165526;28;20234;-92
2021/08/08 05:05:42;;;;;;;21.13;3.33;;;15.60;99.90;;;;;;4148568;28;20657;-90
2021/08/08 05:07:51;;;;;;;21.00;3.53;;;15.50;99.90;;;;;;4166590;28;20182;-90
2021/08/08 05:10:00;;;;;;;25.10;4.05;;;15.50;99.90;;;;;;4152603;28;20637;-90
2021/08/08 05:12:07;;;;;;;21.15;3.33;;;15.60;99.90;;;;;;4165817;28;20160;-89
2021/08/08 05:14:15;;;;;;;22.02;3.35;;;15.40;99.90;;;;;;4165728;28;20672;-90
2021/08/08 05:16:16;;;;;;;21.75;4.10;;;15.30;99.90;;;;;;4164710;28;20285;-90
2021/08/08 05:18:21;;;;;;;30.85;3.85;;;15.20;99.90;;;;;;4166879;28;20176;-90
2021/08/08 05:20:22;;;;;;;20.25;3.78;;;15.10;99.90;;;;;;4150453;28;20235;-88
2021/08/08 05:22:25;;;;;;;20.15;3.15;;;15.30;99.90;;;;;;4164689;28;20180;-89
2021/08/08 05:24:50;;;;;;;24.13;4.22;;;15.30;99.90;;;;;;4168322;28;20180;-91
2021/08/08 05:27:08;;;;;;;23.75;3.08;;;15.20;99.90;;;;;;4164391;28;20208;-91
2021/08/08 05:29:11;;;;;;;25.48;3.53;;;15.20;99.90;;;;;;4148163;28;20230;-91
2021/08/08 05:31:18;;;;;;;23.17;4.53;;;15.20;99.90;;;;;;4152338;28;20727;-89
2021/08/08 05:33:28;;;;;;;23.13;3.95;;;15.40;99.90;;;;;;4166034;28;20180;-90
2021/08/08 05:35:30;;;;;;;25.33;3.45;;;15.40;99.90;;;;;;4153237;28;20651;-89
2021/08/08 05:37:30;;;;;;;22.50;3.80;;;15.30;99.90;;;;;;4151275;28;20219;-90
2021/08/08 05:39:36;;;;;;;20.00;3.17;;;15.40;99.90;;;;;;4151015;28;20177;-90
2021/08/08 05:41:39;;;;;;;21.63;3.58;;;15.40;99.90;;;;;;4164816;28;20172;-93
2021/08/08 05:43:40;;;;;;;20.00;3.58;;;15.40;99.90;;;;;;4148892;28;20169;-90
2021/08/08 05:45:48;;;;;;;20.77;3.17;;;15.40;99.90;;;;;;4150303;28;20193;-88
2021/08/08 05:47:49;;;;;;;27.95;3.33;;;15.60;99.90;;;;;;4149537;28;20272;-93
2021/08/08 05:49:55;;;;;;;20.70;3.53;;;15.80;99.90;;;;;;4171285;28;20176;-89
2021/08/08 05:52:03;;;;;;;22.15;3.35;;;16.00;99.90;;;;;;4164137;28;20218;-89
2021/08/08 05:54:04;;;;;;;20.73;3.53;;;16.10;99.90;;;;;;4149181;28;20239;-93
2021/08/08 05:56:08;;;;;;;18.38;3.00;;;16.00;99.90;;;;;;4169522;28;20690;-91
2021/08/08 05:58:14;;;;;;;20.83;3.65;;;15.90;99.90;;;;;;4152056;28;20564;-94
2021/08/08 06:00:25;;;;;;;23.02;3.55;;;15.80;99.90;;;;;;4167299;28;20191;-89
2021/08/08 06:02:34;;;;;;;22.88;3.63;;;15.90;99.90;;;;;;4152546;28;20169;-90
2021/08/08 06:04:39;;;;;;;23.70;4.00;;;15.90;99.90;;;;;;4168832;28;20195;-89
2021/08/08 06:06:40;;;;;;;19.83;3.65;;;16.00;99.90;;;;;;4150952;28;20279;-89
2021/08/08 06:08:48;;;;;;;26.38;3.13;;;16.00;99.90;;;;;;4172311;28;20195;-89
2021/08/08 06:10:52;;;;;;;22.42;2.92;;;15.80;99.90;;;;;;4163998;28;20249;-90
2021/08/08 06:12:54;;;;;;;18.75;3.03;;;15.90;99.90;;;;;;4151382;28;20179;-90
2021/08/08 06:14:56;;;;;;;13.90;2.80;;;16.00;99.90;;;;;;4151265;28;20160;-90
2021/08/08 06:16:56;;;;;;;24.63;3.55;;;16.10;99.90;;;;;;4154045;28;20180;-89
2021/08/08 06:18:57;;;;;;;16.60;3.13;;;16.10;99.90;;;;;;4168049;28;20208;-90
2021/08/08 06:20:58;;;;;;;14.63;2.88;;;16.10;99.90;;;;;;4170691;28;20171;-90
2021/08/08 06:23:09;;;;;;;18.30;2.80;;;16.30;99.90;;;;;;4156878;28;20183;-94
2021/08/08 06:25:11;;;;;;;16.38;3.03;;;16.10;99.90;;;;;;4150423;28;20208;-89
2021/08/08 06:27:15;;;;;;;22.08;3.47;;;16.20;99.90;;;;;;4169083;28;20184;-90
2021/08/08 06:29:16;;;;;;;17.63;3.30;;;16.30;99.90;;;;;;4153739;28;20180;-90
2021/08/08 06:31:18;;;;;;;13.50;3.13;;;16.20;99.90;;;;;;4167595;28;20224;-91
2021/08/08 06:33:19;;;;;;;13.55;2.70;;;16.40;99.90;;;;;;4172888;28;20191;-91
2021/08/08 06:35:24;;;;;;;13.05;2.67;;;16.60;99.90;;;;;;4171962;28;20208;-91
2021/08/08 06:37:28;;;;;;;19.90;2.65;;;16.80;99.90;;;;;;4169192;28;20656;-89
2021/08/08 06:39:31;;;;;;;22.92;3.42;;;16.80;99.90;;;;;;4167976;28;20183;-89
2021/08/08 06:41:33;;;;;;;17.33;3.10;;;16.70;99.90;;;;;;4154053;28;20165;-92
2021/08/08 06:43:37;;;;;;;20.48;3.22;;;16.70;99.90;;;;;;4167046;28;20190;-89
2021/08/08 06:45:47;;;;;;;21.75;3.33;;;16.50;99.90;;;;;;4171665;28;20192;-92
2021/08/08 06:48:00;;;;;;;14.60;3.13;;;16.50;99.90;;;;;;4151273;28;20263;-90
2021/08/08 06:50:02;;;;;;;18.38;3.17;;;16.40;99.90;;;;;;4168569;28;20782;-90
2021/08/08 06:52:04;;;;;;;14.95;3.38;;;16.60;99.90;;;;;;4152161;28;20695;-90
2021/08/08 06:54:13;;;;;;;21.50;3.30;;;16.60;99.90;;;;;;4171670;28;20180;-90
2021/08/08 06:56:29;;;;;;;17.60;2.60;;;16.40;99.90;;;;;;4158234;28;20288;-90
2021/08/08 06:58:41;;;;;;;16.67;2.88;;;16.50;99.90;;;;;;4169796;28;20707;-91
2021/08/08 07:00:42;;;;;;;28.98;2.97;;;16.60;99.90;;;;;;4154117;28;20176;-91
2021/08/08 07:02:45;;;;;;;17.05;2.72;;;16.60;99.90;;;;;;4168300;28;20180;-92
2021/08/08 07:05:06;;;;;;;19.35;2.97;;;16.40;99.90;;;;;;4155675;28;20234;-91
2021/08/08 07:07:07;;;;;;;17.35;3.22;;;16.30;99.90;;;;;;4151558;28;20307;-89
2021/08/08 07:09:09;;;;;;;17.83;2.67;;;16.30;99.90;;;;;;4153613;28;20203;-96
2021/08/08 07:11:12;;;;;;;18.65;2.85;;;16.30;99.90;;;;;;4166973;28;20291;-90
2021/08/08 07:13:13;;;;;;;16.88;2.95;;;16.50;99.90;;;;;;4167425;28;20168;-91
2021/08/08 07:15:14;;;;;;;18.23;2.63;;;16.50;99.90;;;;;;4153842;28;20212;-95
2021/08/08 07:17:15;;;;;;;15.90;2.83;;;16.60;99.90;;;;;;4153029;28;20219;-92
2021/08/08 07:19:19;;;;;;;17.00;2.90;;;16.60;99.90;;;;;;4152679;28;20184;-90
2021/08/08 07:21:24;;;;;;;16.05;2.95;;;16.50;99.90;;;;;;4168879;28;20175;-95
2021/08/08 07:23:25;;;;;;;18.92;2.95;;;16.50;99.90;;;;;;4152158;28;20169;-95
2021/08/08 07:25:26;;;;;;;19.10;3.50;;;16.50;99.90;;;;;;4150825;28;20544;-91
2021/08/08 07:27:27;;;;;;;16.42;2.70;;;16.50;99.90;;;;;;4151700;28;20240;-90
2021/08/08 07:29:28;;;;;;;14.30;2.35;;;16.70;99.90;;;;;;4151717;28;20260;-91
2021/08/08 07:31:33;;;;;;;19.15;2.97;;;17.00;99.90;;;;;;4167801;28;20251;-91
2021/08/08 07:33:34;;;;;;;17.15;2.78;;;17.30;99.90;;;;;;4150696;28;20239;-92
2021/08/08 07:35:36;;;;;;;14.05;3.13;;;17.80;99.90;;;;;;4134005;28;20205;-91
2021/08/08 07:37:37;;;;;;;17.08;2.92;;;17.90;99.90;;;;;;4166808;28;20540;-95
2021/08/08 07:39:38;;;;;;;11.88;2.38;;;17.70;99.90;;;;;;4174050;28;20168;-90
2021/08/08 07:41:40;;;;;;;16.73;2.33;;;17.60;99.90;;;;;;4150082;28;20183;-91
2021/08/08 07:43:40;;;;;;;17.67;2.30;;;17.60;99.90;;;;;;4151540;28;20649;-92
2021/08/08 07:45:41;;;;;;;17.23;3.08;;;17.70;99.90;;;;;;4170290;28;20192;-94
2021/08/08 07:47:42;;;;;;;11.70;2.20;;;17.70;99.90;;;;;;4170905;28;20169;-95
2021/08/08 07:49:44;;;;;;;12.73;2.50;;;17.50;99.90;;;;;;4167857;28;20203;-89
2021/08/08 07:51:45;;;;;;;18.98;2.97;;;17.60;99.90;;;;;;4152677;28;20177;-90
2021/08/08 07:53:48;;;;;;;14.43;3.15;;;18.10;99.90;;;;;;4167546;28;20179;-91
2021/08/08 07:55:54;;;;;;;14.73;2.25;;;19.10;99.90;;;;;;4134129;28;20205;-94
2021/08/08 07:57:55;;;;;;;14.00;2.45;;;20.30;99.90;;;;;;4150229;28;20236;-91
2021/08/08 07:59:58;;;;;;;15.57;2.40;;;21.00;99.90;;;;;;4152608;28;20169;-90
2021/08/08 08:01:59;;;;;;;14.50;2.35;;;20.80;99.90;;;;;;4174843;28;20168;-95
2021/08/08 08:04:00;;;;;;;12.18;2.05;;;20.70;99.90;;;;;;4153031;28;20187;-91
2021/08/08 08:06:05;;;;;;;18.25;2.55;;;20.60;99.90;;;;;;4151561;28;20240;-92
2021/08/08 08:08:06;;;;;;;14.25;2.63;;;20.10;99.90;;;;;;4149786;28;20218;-90
2021/08/08 08:10:08;;;;;;;17.70;2.83;;;19.60;99.90;;;;;;4149120;28;20267;-91
2021/08/08 08:12:12;;;;;;;14.73;2.38;;;19.40;99.90;;;;;;4150726;28;20169;-89
2021/08/08 08:14:15;;;;;;;12.80;2.40;;;19.30;99.90;;;;;;4168652;28;20180;-92
2021/08/08 08:16:18;;;;;;;16.05;2.80;;;19.40;99.90;;;;;;4167197;28;20188;-89
2021/08/08 08:18:19;;;;;;;12.88;2.22;;;19.50;99.90;;;;;;4153676;28;20177;-90
2021/08/08 08:20:24;;;;;;;10.77;2.03;;;19.10;99.90;;;;;;4169714;28;20267;-91
2021/08/08 08:22:25;;;;;;;14.70;2.10;;;18.70;99.90;;;;;;4149188;28;20629;-89
2021/08/08 08:24:26;;;;;;;18.23;2.30;;;18.60;99.90;;;;;;4150422;28;20171;-91
2021/08/08 08:26:28;;;;;;;13.00;2.95;;;18.30;99.90;;;;;;4185397;28;20215;-96
2021/08/08 08:28:29;;;;;;;9.25;2.10;;;18.40;99.90;;;;;;4150311;28;20195;-88
2021/08/08 08:30:31;;;;;;;11.68;2.05;;;18.70;99.90;;;;;;4153580;28;20348;-95
2021/08/08 08:32:33;;;;;;;14.48;2.30;;;19.10;99.90;;;;;;4149732;28;20201;-95
2021/08/08 08:34:34;;;;;;;12.48;2.25;;;19.70;99.90;;;;;;4152810;28;20177;-94
2021/08/08 08:36:35;;;;;;;22.10;3.28;;;19.90;99.90;;;;;;4160667;28;20200;-95
2021/08/08 08:38:40;;;;;;;12.20;1.77;;;19.80;99.90;;;;;;4164014;28;20169;-95
2021/08/08 08:40:42;;;;;;;11.88;2.38;;;19.80;99.90;;;;;;4171641;28;20175;-95
2021/08/08 08:42:50;;;;;;;11.68;2.08;;;20.10;99.90;;;;;;4148597;28;20260;-90
2021/08/08 08:44:53;;;;;;;13.63;2.58;;;20.30;99.90;;;;;;4165271;28;20619;-91
2021/08/08 08:46:56;;;;;;;6.75;1.80;;;20.70;99.90;;;;;;4148679;28;20177;-92
2021/08/08 08:48:57;;;;;;;15.57;2.35;;;20.90;99.90;;;;;;4149113;28;20181;-95
2021/08/08 08:51:02;;;;;;;12.20;2.10;;;20.90;99.90;;;;;;4149749;28;20200;-95
2021/08/08 08:53:05;;;;;;;10.80;1.77;;;21.00;99.90;;;;;;4153547;28;20236;-90
2021/08/08 08:55:07;;;;;;;12.20;1.83;;;20.70;99.90;;;;;;4154105;28;20192;-94
2021/08/08 08:57:09;;;;;;;15.82;2.08;;;20.10;99.90;;;;;;4170671;28;20239;-96
2021/08/08 08:59:11;;;;;;;10.55;2.28;;;19.90;99.90;;;;;;4151446;28;20203;-92
2021/08/08 09:01:12;;;;;;;12.13;2.00;;;19.70;99.90;;;;;;4150578;28;20180;-95
2021/08/08 09:03:13;;;;;;;13.02;1.88;;;19.90;99.90;;;;;;4149144;28;20172;-89
2021/08/08 09:05:16;;;;;;;14.55;2.33;;;19.90;99.90;;;;;;4166998;28;20795;-90
2021/08/08 09:07:17;;;;;;;10.25;2.28;;;19.90;99.90;;;;;;4150773;28;20164;-90
2021/08/08 09:09:18;;;;;;;9.77;1.60;;;20.20;99.90;;;;;;4148994;28;20185;-90
2021/08/08 09:11:19;;;;;;;8.90;1.90;;;20.30;99.90;;;;;;4148125;28;20299;-89
2021/08/08 09:13:20;;;;;;;10.25;2.08;;;20.30;99.90;;;;;;4151418;28;20173;-94
2021/08/08 09:15:34;;;;;;;10.15;1.85;;;20.60;99.90;;;;;;4151430;28;20732;-96
2021/08/08 09:17:36;;;;;;;7.47;2.05;;;21.40;99.90;;;;;;4149515;28;20622;-92
2021/08/08 09:19:38;;;;;;;10.95;2.10;;;22.00;99.90;;;;;;4167692;28;20176;-90
2021/08/08 09:21:46;;;;;;;13.18;2.25;;;22.40;99.90;;;;;;4150647;28;20180;-93
2021/08/08 09:23:58;;;;;;;10.68;1.77;;;22.30;99.90;;;;;;4150161;28;20634;-91
2021/08/08 09:26:00;;;;;;;16.27;2.17;;;21.90;99.90;;;;;;4150841;28;20196;-96
2021/08/08 09:28:09;;;;;;;14.25;1.70;;;21.70;99.90;;;;;;4150712;28;20172;-93
2021/08/08 09:30:22;;;;;;;9.65;1.58;;;22.00;99.90;;;;;;4150114;28;20698;-91
2021/08/08 09:32:34;;;;;;;8.15;1.80;;;21.80;99.90;;;;;;4151581;28;20216;-90
2021/08/08 09:34:41;;;;;;;7.90;2.00;;;22.10;99.90;;;;;;4167514;28;20251;-89
2021/08/08 09:36:43;;;;;;;9.60;2.17;;;22.00;99.90;;;;;;4170993;28;20187;-91
2021/08/08 09:38:45;;;;;;;20.00;8.40;;;22.70;99.90;;;;;;4153344;28;20176;-88
2021/08/08 09:40:57;;;;;;;15.75;4.85;;;22.70;99.90;;;;;;4168009;28;20326;-90
2021/08/08 09:42:58;;;;;;;11.10;2.47;;;22.40;99.90;;;;;;4152867;28;20200;-89
2021/08/08 09:45:02;;;;;;;6.63;1.70;;;22.30;99.90;;;;;;4152623;28;20637;-93
2021/08/08 09:47:03;;;;;;;12.82;2.15;;;22.50;99.90;;;;;;4168005;28;20165;-89
2021/08/08 09:49:12;;;;;;;13.52;1.80;;;22.80;99.90;;;;;;4153203;28;20688;-90
2021/08/08 09:51:13;;;;;;;11.80;1.88;;;22.90;99.90;;;;;;4152648;28;20251;-93
2021/08/08 09:53:19;;;;;;;8.68;1.88;;;22.50;99.90;;;;;;4153212;28;20231;-90
2021/08/08 09:55:24;;;;;;;11.50;2.53;;;22.10;99.90;;;;;;4152536;28;20262;-89
2021/08/08 09:57:25;;;;;;;11.02;3.83;;;21.90;99.90;;;;;;4169038;28;20198;-90
2021/08/08 09:59:26;;;;;;;11.40;1.60;;;21.50;99.90;;;;;;4151687;28;20200;-89
2021/08/08 10:01:27;;;;;;;9.43;1.85;;;21.00;99.90;;;;;;4152274;28;20177;-90
2021/08/08 10:03:28;;;;;;;6.28;1.40;;;21.30;99.90;;;;;;4168580;28;20259;-91
2021/08/08 10:05:29;;;;;;;10.93;1.77;;;21.50;99.90;;;;;;4153413;28;20196;-87
2021/08/08 10:07:33;;;;;;;10.88;2.13;;;21.10;99.90;;;;;;4170091;28;20176;-95
2021/08/08 10:09:34;;;;;;;8.30;2.25;;;21.30;99.90;;;;;;4156944;28;20173;-91
2021/08/08 10:11:35;;;;;;;9.98;1.60;;;20.90;99.90;;;;;;4168242;28;20318;-92
2021/08/08 10:13:55;;;;;;;10.45;1.60;;;21.20;99.90;;;;;;4153016;28;20177;-94
2021/08/08 10:15:59;;;;;;;8.52;1.50;;;21.40;99.90;;;;;;4151738;28;20197;-94
2021/08/08 10:18:02;;;;;;;7.13;1.80;;;21.10;99.90;;;;;;4168124;28;20226;-89
2021/08/08 10:20:04;;;;;;;8.38;1.45;;;21.10;99.90;;;;;;4151346;28;20542;-91
2021/08/08 10:22:05;;;;;;;7.00;1.70;;;20.80;99.90;;;;;;4167251;28;20172;-89
2021/08/08 10:24:07;;;;;;;6.78;1.50;;;20.60;99.90;;;;;;4151444;28;20185;-95
2021/08/08 10:26:08;;;;;;;6.60;1.80;;;20.60;99.90;;;;;;4151038;28;20220;-96
2021/08/08 10:28:10;;;;;;;10.52;1.75;;;21.00;99.90;;;;;;4168163;28;20192;-93
2021/08/08 10:30:12;;;;;;;10.75;2.88;;;21.30;99.90;;;;;;4152113;28;20266;-94
2021/08/08 10:32:13;;;;;;;8.32;1.92;;;21.30;99.90;;;;;;4150493;28;20189;-91
2021/08/08 10:34:14;;;;;;;8.13;2.03;;;21.50;99.90;;;;;;4151441;28;20188;-91
2021/08/08 10:36:22;;;;;;;8.48;1.88;;;21.50;99.90;;;;;;4151653;28;20358;-90
2021/08/08 10:38:23;;;;;;;5.90;1.60;;;21.20;99.90;;;;;;4151036;28;20787;-93